sensor_id;sensor_type;location;lat;lon;timestamp;P1;durP1;ratioP1;P2;durP2;ratioP2
55647;SDS011;45266;48.756;9.246;2023-05-18T00:00:16;8.93;;;4.67;;
55647;SDS011;45266;48.756;9.246;2023-05-18T00:01:19;7.63;;;4.47;;
55647;SDS011;45266;48.756;9.246;2023-05-18T00:02:22;5.97;;;4.23;;
55647;SDS011;45266;48.756;9.246;2023-05-18T00:03:27;5.63;;;3.73;;
55647;SDS011;45266;48.756;9.246;2023-05-18T00:04:33;7.70;;;4.30;;
55647;SDS011;45266;48.756;9.246;2023-05-18T00:05:36;8.23;;;4.20;;
55647;SDS011;45266;48.756;9.246;2023-05-18T00:06:38;5.63;;;4.33;;
55647;SDS011;45266;48.756;9.246;2023-05-18T00:07:40;7.47;;;4.70;;
55647;SDS011;45266;48.756;9.246;2023-05-18T00:08:42;8.13;;;4.67;;
55647;SDS011;45266;48.756;9.246;2023-05-18T00:09:43;7.23;;;4.60;;
55647;SDS011;45266;48.756;9.246;2023-05-18T00:10:45;6.50;;;4.20;;
55647;SDS011;45266;48.756;9.246;2023-05-18T00:11:47;7.23;;;4.73;;
55647;SDS011;45266;48.756;9.246;2023-05-18T00:12:49;7.77;;;5.00;;
55647;SDS011;45266;48.756;9.246;2023-05-18T00:13:51;6.43;;;4.63;;
55647;SDS011;45266;48.756;9.246;2023-05-18T00:14:53;7.60;;;4.53;;
55647;SDS011;45266;48.756;9.246;2023-05-18T00:15:55;4.87;;;3.80;;
55647;SDS011;45266;48.756;9.246;2023-05-18T00:16:57;8.57;;;5.30;;
55647;SDS011;45266;48.756;9.246;2023-05-18T00:18:02;7.60;;;4.67;;
55647;SDS011;45266;48.756;9.246;2023-05-18T00:19:04;7.47;;;4.50;;
55647;SDS011;45266;48.756;9.246;2023-05-18T00:20:06;7.80;;;4.70;;
55647;SDS011;45266;48.756;9.246;2023-05-18T00:21:09;7.43;;;4.83;;
55647;SDS011;45266;48.756;9.246;2023-05-18T00:22:11;8.77;;;5.00;;
55647;SDS011;45266;48.756;9.246;2023-05-18T00:23:18;6.47;;;4.43;;
55647;SDS011;45266;48.756;9.246;2023-05-18T00:24:20;7.03;;;4.40;;
55647;SDS011;45266;48.756;9.246;2023-05-18T00:25:23;5.13;;;4.50;;
55647;SDS011;45266;48.756;9.246;2023-05-18T00:26:24;7.37;;;4.60;;
55647;SDS011;45266;48.756;9.246;2023-05-18T00:27:26;5.73;;;3.70;;
55647;SDS011;45266;48.756;9.246;2023-05-18T00:28:28;5.80;;;4.17;;
55647;SDS011;45266;48.756;9.246;2023-05-18T00:29:30;6.03;;;4.23;;
55647;SDS011;45266;48.756;9.246;2023-05-18T00:30:32;7.80;;;4.53;;
55647;SDS011;45266;48.756;9.246;2023-05-18T00:31:34;9.27;;;4.73;;
55647;SDS011;45266;48.756;9.246;2023-05-18T00:32:38;4.80;;;3.63;;
55647;SDS011;45266;48.756;9.246;2023-05-18T00:33:40;7.27;;;4.40;;
55647;SDS011;45266;48.756;9.246;2023-05-18T00:34:42;7.63;;;3.80;;
55647;SDS011;45266;48.756;9.246;2023-05-18T00:35:44;9.53;;;4.03;;
55647;SDS011;45266;48.756;9.246;2023-05-18T00:36:46;8.50;;;4.70;;
55647;SDS011;45266;48.756;9.246;2023-05-18T00:37:48;7.17;;;4.80;;
55647;SDS011;45266;48.756;9.246;2023-05-18T00:38:50;8.30;;;4.20;;
55647;SDS011;45266;48.756;9.246;2023-05-18T00:39:52;6.17;;;4.17;;
55647;SDS011;45266;48.756;9.246;2023-05-18T00:40:54;5.97;;;4.33;;
55647;SDS011;45266;48.756;9.246;2023-05-18T00:41:56;7.47;;;4.43;;
55647;SDS011;45266;48.756;9.246;2023-05-18T00:42:58;7.93;;;4.57;;
55647;SDS011;45266;48.756;9.246;2023-05-18T00:44:00;7.03;;;4.23;;
55647;SDS011;45266;48.756;9.246;2023-05-18T00:45:05;8.47;;;4.43;;
55647;SDS011;45266;48.756;9.246;2023-05-18T00:46:07;6.87;;;4.43;;
55647;SDS011;45266;48.756;9.246;2023-05-18T00:47:09;7.40;;;4.83;;
55647;SDS011;45266;48.756;9.246;2023-05-18T00:48:12;6.53;;;4.40;;
55647;SDS011;45266;48.756;9.246;2023-05-18T00:49:15;9.47;;;4.63;;
55647;SDS011;45266;48.756;9.246;2023-05-18T00:50:17;5.83;;;4.70;;
55647;SDS011;45266;48.756;9.246;2023-05-18T00:51:20;6.50;;;4.50;;
55647;SDS011;45266;48.756;9.246;2023-05-18T00:52:23;9.80;;;4.63;;
55647;SDS011;45266;48.756;9.246;2023-05-18T00:53:27;9.73;;;4.93;;
55647;SDS011;45266;48.756;9.246;2023-05-18T00:54:29;7.50;;;4.50;;
55647;SDS011;45266;48.756;9.246;2023-05-18T00:55:33;7.77;;;4.60;;
55647;SDS011;45266;48.756;9.246;2023-05-18T00:56:36;7.07;;;4.80;;
55647;SDS011;45266;48.756;9.246;2023-05-18T00:57:42;6.33;;;4.47;;
55647;SDS011;45266;48.756;9.246;2023-05-18T00:58:44;7.87;;;4.63;;
55647;SDS011;45266;48.756;9.246;2023-05-18T00:59:47;9.93;;;5.20;;
55647;SDS011;45266;48.756;9.246;2023-05-18T01:00:50;9.10;;;4.60;;
55647;SDS011;45266;48.756;9.246;2023-05-18T01:01:52;7.30;;;4.80;;
55647;SDS011;45266;48.756;9.246;2023-05-18T01:02:55;7.43;;;5.30;;
55647;SDS011;45266;48.756;9.246;2023-05-18T01:03:57;7.03;;;4.50;;
55647;SDS011;45266;48.756;9.246;2023-05-18T01:05:02;7.20;;;4.17;;
55647;SDS011;45266;48.756;9.246;2023-05-18T01:06:05;6.60;;;4.50;;
55647;SDS011;45266;48.756;9.246;2023-05-18T01:07:07;7.73;;;4.73;;
55647;SDS011;45266;48.756;9.246;2023-05-18T01:08:10;7.40;;;4.30;;
55647;SDS011;45266;48.756;9.246;2023-05-18T01:09:12;6.63;;;4.47;;
55647;SDS011;45266;48.756;9.246;2023-05-18T01:10:16;9.10;;;4.57;;
55647;SDS011;45266;48.756;9.246;2023-05-18T01:12:28;6.87;;;4.87;;
55647;SDS011;45266;48.756;9.246;2023-05-18T01:13:40;7.93;;;4.60;;
55647;SDS011;45266;48.756;9.246;2023-05-18T01:15:00;6.50;;;4.77;;
55647;SDS011;45266;48.756;9.246;2023-05-18T01:16:09;8.90;;;4.90;;
55647;SDS011;45266;48.756;9.246;2023-05-18T01:18:35;7.27;;;4.93;;
55647;SDS011;45266;48.756;9.246;2023-05-18T01:20:56;9.83;;;5.70;;
55647;SDS011;45266;48.756;9.246;2023-05-18T01:26:47;6.90;;;4.27;;
55647;SDS011;45266;48.756;9.246;2023-05-18T01:27:50;9.77;;;5.33;;
55647;SDS011;45266;48.756;9.246;2023-05-18T01:28:57;7.90;;;5.43;;
55647;SDS011;45266;48.756;9.246;2023-05-18T01:30:02;7.53;;;5.03;;
55647;SDS011;45266;48.756;9.246;2023-05-18T01:31:05;8.40;;;5.23;;
55647;SDS011;45266;48.756;9.246;2023-05-18T01:32:08;6.73;;;5.10;;
55647;SDS011;45266;48.756;9.246;2023-05-18T01:33:10;10.37;;;4.70;;
55647;SDS011;45266;48.756;9.246;2023-05-18T01:34:13;6.37;;;4.80;;
55647;SDS011;45266;48.756;9.246;2023-05-18T01:35:15;6.83;;;5.20;;
55647;SDS011;45266;48.756;9.246;2023-05-18T01:36:17;8.10;;;5.20;;
55647;SDS011;45266;48.756;9.246;2023-05-18T01:37:19;8.30;;;5.50;;
55647;SDS011;45266;48.756;9.246;2023-05-18T01:38:22;10.40;;;5.07;;
55647;SDS011;45266;48.756;9.246;2023-05-18T01:39:25;6.87;;;5.37;;
55647;SDS011;45266;48.756;9.246;2023-05-18T01:40:29;10.27;;;5.23;;
55647;SDS011;45266;48.756;9.246;2023-05-18T01:41:47;7.60;;;5.30;;
55647;SDS011;45266;48.756;9.246;2023-05-18T01:43:12;7.10;;;5.20;;
55647;SDS011;45266;48.756;9.246;2023-05-18T01:44:19;8.53;;;5.30;;
55647;SDS011;45266;48.756;9.246;2023-05-18T01:45:21;8.07;;;5.60;;
55647;SDS011;45266;48.756;9.246;2023-05-18T01:47:55;7.87;;;5.47;;
55647;SDS011;45266;48.756;9.246;2023-05-18T01:49:03;7.90;;;5.33;;
55647;SDS011;45266;48.756;9.246;2023-05-18T01:50:14;10.50;;;5.57;;
55647;SDS011;45266;48.756;9.246;2023-05-18T01:51:19;7.33;;;5.40;;
55647;SDS011;45266;48.756;9.246;2023-05-18T01:52:24;8.20;;;5.47;;
55647;SDS011;45266;48.756;9.246;2023-05-18T01:53:37;10.90;;;6.27;;
55647;SDS011;45266;48.756;9.246;2023-05-18T01:54:44;9.33;;;5.60;;
55647;SDS011;45266;48.756;9.246;2023-05-18T01:55:53;10.03;;;6.23;;
55647;SDS011;45266;48.756;9.246;2023-05-18T01:56:56;8.57;;;5.83;;
55647;SDS011;45266;48.756;9.246;2023-05-18T01:57:59;11.40;;;6.30;;
55647;SDS011;45266;48.756;9.246;2023-05-18T01:59:04;8.17;;;5.83;;
55647;SDS011;45266;48.756;9.246;2023-05-18T02:00:07;9.23;;;5.67;;
55647;SDS011;45266;48.756;9.246;2023-05-18T02:01:10;8.77;;;5.93;;
55647;SDS011;45266;48.756;9.246;2023-05-18T02:02:12;9.80;;;6.10;;
55647;SDS011;45266;48.756;9.246;2023-05-18T02:03:14;9.90;;;6.23;;
55647;SDS011;45266;48.756;9.246;2023-05-18T02:04:17;8.63;;;6.70;;
55647;SDS011;45266;48.756;9.246;2023-05-18T02:05:19;11.70;;;6.17;;
55647;SDS011;45266;48.756;9.246;2023-05-18T02:06:21;9.77;;;5.60;;
55647;SDS011;45266;48.756;9.246;2023-05-18T02:07:23;8.87;;;6.53;;
55647;SDS011;45266;48.756;9.246;2023-05-18T02:08:25;13.33;;;5.90;;
55647;SDS011;45266;48.756;9.246;2023-05-18T02:09:27;10.27;;;6.00;;
55647;SDS011;45266;48.756;9.246;2023-05-18T02:10:28;9.33;;;6.10;;
55647;SDS011;45266;48.756;9.246;2023-05-18T02:11:30;8.07;;;5.93;;
55647;SDS011;45266;48.756;9.246;2023-05-18T02:12:32;8.70;;;6.40;;
55647;SDS011;45266;48.756;9.246;2023-05-18T02:13:34;8.40;;;6.33;;
55647;SDS011;45266;48.756;9.246;2023-05-18T02:14:36;8.03;;;6.40;;
55647;SDS011;45266;48.756;9.246;2023-05-18T02:15:38;11.07;;;6.60;;
55647;SDS011;45266;48.756;9.246;2023-05-18T02:16:40;8.47;;;6.23;;
55647;SDS011;45266;48.756;9.246;2023-05-18T02:17:42;10.47;;;5.63;;
55647;SDS011;45266;48.756;9.246;2023-05-18T02:18:44;10.53;;;6.40;;
55647;SDS011;45266;48.756;9.246;2023-05-18T02:19:46;9.27;;;6.30;;
55647;SDS011;45266;48.756;9.246;2023-05-18T02:20:49;9.70;;;5.70;;
55647;SDS011;45266;48.756;9.246;2023-05-18T02:21:51;8.07;;;5.83;;
55647;SDS011;45266;48.756;9.246;2023-05-18T02:22:53;8.93;;;6.27;;
55647;SDS011;45266;48.756;9.246;2023-05-18T02:23:54;8.73;;;5.53;;
55647;SDS011;45266;48.756;9.246;2023-05-18T02:24:56;9.43;;;6.27;;
55647;SDS011;45266;48.756;9.246;2023-05-18T02:25:58;10.23;;;5.80;;
55647;SDS011;45266;48.756;9.246;2023-05-18T02:27:01;10.70;;;5.87;;
55647;SDS011;45266;48.756;9.246;2023-05-18T02:28:02;8.43;;;5.87;;
55647;SDS011;45266;48.756;9.246;2023-05-18T02:29:05;8.77;;;6.27;;
55647;SDS011;45266;48.756;9.246;2023-05-18T02:30:07;8.17;;;5.60;;
55647;SDS011;45266;48.756;9.246;2023-05-18T02:31:09;12.47;;;6.10;;
55647;SDS011;45266;48.756;9.246;2023-05-18T02:32:12;10.23;;;6.03;;
55647;SDS011;45266;48.756;9.246;2023-05-18T02:33:14;8.50;;;5.73;;
55647;SDS011;45266;48.756;9.246;2023-05-18T02:34:17;6.87;;;5.50;;
55647;SDS011;45266;48.756;9.246;2023-05-18T02:35:22;7.77;;;6.17;;
55647;SDS011;45266;48.756;9.246;2023-05-18T02:36:24;10.87;;;5.97;;
55647;SDS011;45266;48.756;9.246;2023-05-18T02:37:26;9.63;;;6.30;;
55647;SDS011;45266;48.756;9.246;2023-05-18T02:38:28;10.07;;;6.20;;
55647;SDS011;45266;48.756;9.246;2023-05-18T02:39:30;11.60;;;6.67;;
55647;SDS011;45266;48.756;9.246;2023-05-18T02:40:34;11.50;;;7.30;;
55647;SDS011;45266;48.756;9.246;2023-05-18T02:41:35;9.97;;;6.73;;
55647;SDS011;45266;48.756;9.246;2023-05-18T02:42:38;13.90;;;6.70;;
55647;SDS011;45266;48.756;9.246;2023-05-18T02:43:40;9.23;;;6.60;;
55647;SDS011;45266;48.756;9.246;2023-05-18T02:44:42;8.73;;;6.13;;
55647;SDS011;45266;48.756;9.246;2023-05-18T02:45:44;8.50;;;5.97;;
55647;SDS011;45266;48.756;9.246;2023-05-18T02:46:45;11.43;;;6.50;;
55647;SDS011;45266;48.756;9.246;2023-05-18T02:47:47;11.87;;;6.47;;
55647;SDS011;45266;48.756;9.246;2023-05-18T02:48:49;8.80;;;6.33;;
55647;SDS011;45266;48.756;9.246;2023-05-18T02:49:51;8.57;;;6.20;;
55647;SDS011;45266;48.756;9.246;2023-05-18T02:50:53;9.70;;;6.67;;
55647;SDS011;45266;48.756;9.246;2023-05-18T02:51:56;9.43;;;6.07;;
55647;SDS011;45266;48.756;9.246;2023-05-18T02:52:58;9.90;;;6.53;;
55647;SDS011;45266;48.756;9.246;2023-05-18T02:54:00;8.37;;;6.20;;
55647;SDS011;45266;48.756;9.246;2023-05-18T02:55:01;11.80;;;6.77;;
55647;SDS011;45266;48.756;9.246;2023-05-18T02:56:04;10.07;;;6.20;;
55647;SDS011;45266;48.756;9.246;2023-05-18T02:57:05;10.03;;;6.00;;
55647;SDS011;45266;48.756;9.246;2023-05-18T02:58:08;8.30;;;5.70;;
55647;SDS011;45266;48.756;9.246;2023-05-18T02:59:10;10.53;;;6.60;;
55647;SDS011;45266;48.756;9.246;2023-05-18T03:00:13;8.83;;;5.60;;
55647;SDS011;45266;48.756;9.246;2023-05-18T03:01:17;11.07;;;5.90;;
55647;SDS011;45266;48.756;9.246;2023-05-18T03:02:18;9.03;;;6.20;;
55647;SDS011;45266;48.756;9.246;2023-05-18T03:03:23;10.20;;;6.17;;
55647;SDS011;45266;48.756;9.246;2023-05-18T03:04:26;9.87;;;6.20;;
55647;SDS011;45266;48.756;9.246;2023-05-18T03:05:28;10.90;;;6.47;;
55647;SDS011;45266;48.756;9.246;2023-05-18T03:06:30;9.93;;;6.43;;
55647;SDS011;45266;48.756;9.246;2023-05-18T03:07:32;10.10;;;6.77;;
55647;SDS011;45266;48.756;9.246;2023-05-18T03:08:34;11.53;;;6.60;;
55647;SDS011;45266;48.756;9.246;2023-05-18T03:09:37;9.43;;;6.00;;
55647;SDS011;45266;48.756;9.246;2023-05-18T03:10:39;8.53;;;5.60;;
55647;SDS011;45266;48.756;9.246;2023-05-18T03:11:41;8.43;;;6.57;;
55647;SDS011;45266;48.756;9.246;2023-05-18T03:12:43;11.47;;;5.97;;
55647;SDS011;45266;48.756;9.246;2023-05-18T03:13:46;11.47;;;6.00;;
55647;SDS011;45266;48.756;9.246;2023-05-18T03:14:48;8.90;;;6.40;;
55647;SDS011;45266;48.756;9.246;2023-05-18T03:15:50;8.63;;;5.80;;
55647;SDS011;45266;48.756;9.246;2023-05-18T03:16:52;11.33;;;6.10;;
55647;SDS011;45266;48.756;9.246;2023-05-18T03:17:58;9.93;;;6.20;;
55647;SDS011;45266;48.756;9.246;2023-05-18T03:19:00;9.93;;;5.80;;
55647;SDS011;45266;48.756;9.246;2023-05-18T03:20:03;9.17;;;5.97;;
55647;SDS011;45266;48.756;9.246;2023-05-18T03:21:05;9.07;;;5.90;;
55647;SDS011;45266;48.756;9.246;2023-05-18T03:22:08;8.73;;;5.87;;
55647;SDS011;45266;48.756;9.246;2023-05-18T03:23:10;8.63;;;6.10;;
55647;SDS011;45266;48.756;9.246;2023-05-18T03:24:12;8.73;;;5.87;;
55647;SDS011;45266;48.756;9.246;2023-05-18T03:25:14;8.37;;;6.10;;
55647;SDS011;45266;48.756;9.246;2023-05-18T03:26:16;11.90;;;6.00;;
55647;SDS011;45266;48.756;9.246;2023-05-18T03:27:18;11.73;;;5.80;;
55647;SDS011;45266;48.756;9.246;2023-05-18T03:28:25;8.80;;;5.83;;
55647;SDS011;45266;48.756;9.246;2023-05-18T03:29:27;6.87;;;5.80;;
55647;SDS011;45266;48.756;9.246;2023-05-18T03:30:31;8.90;;;6.00;;
55647;SDS011;45266;48.756;9.246;2023-05-18T03:31:34;8.30;;;5.67;;
55647;SDS011;45266;48.756;9.246;2023-05-18T03:32:36;8.10;;;5.13;;
55647;SDS011;45266;48.756;9.246;2023-05-18T03:33:38;8.43;;;6.10;;
55647;SDS011;45266;48.756;9.246;2023-05-18T03:34:40;8.57;;;5.90;;
55647;SDS011;45266;48.756;9.246;2023-05-18T03:35:42;10.03;;;6.87;;
55647;SDS011;45266;48.756;9.246;2023-05-18T03:36:44;8.60;;;6.10;;
55647;SDS011;45266;48.756;9.246;2023-05-18T03:37:47;8.77;;;6.07;;
55647;SDS011;45266;48.756;9.246;2023-05-18T03:38:49;8.47;;;6.50;;
55647;SDS011;45266;48.756;9.246;2023-05-18T03:39:51;10.53;;;6.47;;
55647;SDS011;45266;48.756;9.246;2023-05-18T03:40:53;9.93;;;6.07;;
55647;SDS011;45266;48.756;9.246;2023-05-18T03:41:56;8.70;;;5.93;;
55647;SDS011;45266;48.756;9.246;2023-05-18T03:42:58;10.47;;;6.60;;
55647;SDS011;45266;48.756;9.246;2023-05-18T03:44:00;6.87;;;5.60;;
55647;SDS011;45266;48.756;9.246;2023-05-18T03:45:02;8.60;;;5.90;;
55647;SDS011;45266;48.756;9.246;2023-05-18T03:46:04;10.10;;;6.33;;
55647;SDS011;45266;48.756;9.246;2023-05-18T03:47:06;9.60;;;6.07;;
55647;SDS011;45266;48.756;9.246;2023-05-18T03:48:08;9.27;;;6.47;;
55647;SDS011;45266;48.756;9.246;2023-05-18T03:49:10;9.00;;;6.43;;
55647;SDS011;45266;48.756;9.246;2023-05-18T03:50:12;11.17;;;6.07;;
55647;SDS011;45266;48.756;9.246;2023-05-18T03:51:14;9.03;;;5.90;;
55647;SDS011;45266;48.756;9.246;2023-05-18T03:52:16;11.87;;;5.73;;
55647;SDS011;45266;48.756;9.246;2023-05-18T03:53:22;8.80;;;5.50;;
55647;SDS011;45266;48.756;9.246;2023-05-18T03:54:24;8.90;;;6.17;;
55647;SDS011;45266;48.756;9.246;2023-05-18T03:55:26;9.87;;;6.00;;
55647;SDS011;45266;48.756;9.246;2023-05-18T03:56:30;10.77;;;6.23;;
55647;SDS011;45266;48.756;9.246;2023-05-18T03:57:32;9.07;;;6.17;;
55647;SDS011;45266;48.756;9.246;2023-05-18T03:58:35;9.23;;;6.10;;
55647;SDS011;45266;48.756;9.246;2023-05-18T03:59:37;11.20;;;6.63;;
55647;SDS011;45266;48.756;9.246;2023-05-18T04:00:38;6.73;;;5.97;;
55647;SDS011;45266;48.756;9.246;2023-05-18T04:01:41;10.07;;;6.50;;
55647;SDS011;45266;48.756;9.246;2023-05-18T04:02:44;8.87;;;6.07;;
55647;SDS011;45266;48.756;9.246;2023-05-18T04:03:47;8.97;;;5.53;;
55647;SDS011;45266;48.756;9.246;2023-05-18T04:04:51;11.30;;;6.00;;
55647;SDS011;45266;48.756;9.246;2023-05-18T04:05:54;8.27;;;5.73;;
55647;SDS011;45266;48.756;9.246;2023-05-18T04:06:56;10.27;;;6.20;;
55647;SDS011;45266;48.756;9.246;2023-05-18T04:07:58;8.90;;;5.87;;
55647;SDS011;45266;48.756;9.246;2023-05-18T04:09:00;9.47;;;6.70;;
55647;SDS011;45266;48.756;9.246;2023-05-18T04:10:05;10.17;;;5.87;;
55647;SDS011;45266;48.756;9.246;2023-05-18T04:11:08;10.70;;;6.47;;
55647;SDS011;45266;48.756;9.246;2023-05-18T04:12:09;9.20;;;6.17;;
55647;SDS011;45266;48.756;9.246;2023-05-18T04:13:12;10.03;;;6.47;;
55647;SDS011;45266;48.756;9.246;2023-05-18T04:14:13;8.07;;;6.20;;
55647;SDS011;45266;48.756;9.246;2023-05-18T04:15:17;9.23;;;5.80;;
55647;SDS011;45266;48.756;9.246;2023-05-18T04:16:19;8.53;;;5.70;;
55647;SDS011;45266;48.756;9.246;2023-05-18T04:17:22;13.07;;;6.33;;
55647;SDS011;45266;48.756;9.246;2023-05-18T04:18:24;9.83;;;6.17;;
55647;SDS011;45266;48.756;9.246;2023-05-18T04:19:30;7.70;;;6.03;;
55647;SDS011;45266;48.756;9.246;2023-05-18T04:20:33;9.67;;;6.37;;
55647;SDS011;45266;48.756;9.246;2023-05-18T04:21:35;10.20;;;5.83;;
55647;SDS011;45266;48.756;9.246;2023-05-18T04:22:38;10.90;;;5.97;;
55647;SDS011;45266;48.756;9.246;2023-05-18T04:23:43;10.50;;;6.03;;
55647;SDS011;45266;48.756;9.246;2023-05-18T04:24:45;8.73;;;6.23;;
55647;SDS011;45266;48.756;9.246;2023-05-18T04:25:48;9.20;;;5.90;;
55647;SDS011;45266;48.756;9.246;2023-05-18T04:26:49;9.80;;;5.93;;
55647;SDS011;45266;48.756;9.246;2023-05-18T04:27:51;8.23;;;6.20;;
55647;SDS011;45266;48.756;9.246;2023-05-18T04:28:55;9.73;;;6.30;;
55647;SDS011;45266;48.756;9.246;2023-05-18T04:30:00;7.97;;;6.20;;
55647;SDS011;45266;48.756;9.246;2023-05-18T04:31:03;11.70;;;6.53;;
55647;SDS011;45266;48.756;9.246;2023-05-18T04:32:06;9.93;;;5.80;;
55647;SDS011;45266;48.756;9.246;2023-05-18T04:33:09;10.93;;;6.13;;
55647;SDS011;45266;48.756;9.246;2023-05-18T04:34:11;10.33;;;6.60;;
55647;SDS011;45266;48.756;9.246;2023-05-18T04:35:13;8.83;;;6.20;;
55647;SDS011;45266;48.756;9.246;2023-05-18T04:36:15;9.27;;;6.30;;
55647;SDS011;45266;48.756;9.246;2023-05-18T04:37:21;9.40;;;6.27;;
55647;SDS011;45266;48.756;9.246;2023-05-18T04:38:23;7.97;;;5.83;;
55647;SDS011;45266;48.756;9.246;2023-05-18T04:39:25;9.83;;;5.93;;
55647;SDS011;45266;48.756;9.246;2023-05-18T04:40:27;9.27;;;6.47;;
55647;SDS011;45266;48.756;9.246;2023-05-18T04:41:34;10.27;;;6.30;;
55647;SDS011;45266;48.756;9.246;2023-05-18T04:42:36;9.67;;;6.53;;
55647;SDS011;45266;48.756;9.246;2023-05-18T04:43:38;9.10;;;6.33;;
55647;SDS011;45266;48.756;9.246;2023-05-18T04:44:40;9.60;;;6.10;;
55647;SDS011;45266;48.756;9.246;2023-05-18T04:45:42;10.03;;;6.47;;
55647;SDS011;45266;48.756;9.246;2023-05-18T04:46:46;9.93;;;6.33;;
55647;SDS011;45266;48.756;9.246;2023-05-18T04:47:48;9.80;;;6.03;;
55647;SDS011;45266;48.756;9.246;2023-05-18T04:48:54;7.97;;;5.87;;
55647;SDS011;45266;48.756;9.246;2023-05-18T04:49:58;12.03;;;6.47;;
55647;SDS011;45266;48.756;9.246;2023-05-18T04:51:00;9.70;;;5.97;;
55647;SDS011;45266;48.756;9.246;2023-05-18T04:52:04;11.17;;;6.07;;
55647;SDS011;45266;48.756;9.246;2023-05-18T04:53:09;10.80;;;6.03;;
55647;SDS011;45266;48.756;9.246;2023-05-18T04:54:12;8.90;;;6.67;;
55647;SDS011;45266;48.756;9.246;2023-05-18T04:55:16;6.80;;;6.07;;
55647;SDS011;45266;48.756;9.246;2023-05-18T04:56:29;10.13;;;6.07;;
55647;SDS011;45266;48.756;9.246;2023-05-18T04:57:31;13.13;;;6.33;;
55647;SDS011;45266;48.756;9.246;2023-05-18T04:58:33;8.60;;;5.97;;
55647;SDS011;45266;48.756;9.246;2023-05-18T04:59:35;10.47;;;6.23;;
55647;SDS011;45266;48.756;9.246;2023-05-18T05:00:37;8.07;;;5.90;;
55647;SDS011;45266;48.756;9.246;2023-05-18T05:01:39;10.73;;;5.90;;
55647;SDS011;45266;48.756;9.246;2023-05-18T05:02:41;9.77;;;6.13;;
55647;SDS011;45266;48.756;9.246;2023-05-18T05:03:43;9.00;;;6.13;;
55647;SDS011;45266;48.756;9.246;2023-05-18T05:04:45;8.07;;;6.07;;
55647;SDS011;45266;48.756;9.246;2023-05-18T05:05:47;11.07;;;5.70;;
55647;SDS011;45266;48.756;9.246;2023-05-18T05:06:49;10.70;;;6.20;;
55647;SDS011;45266;48.756;9.246;2023-05-18T05:07:52;9.80;;;6.10;;
55647;SDS011;45266;48.756;9.246;2023-05-18T05:08:54;7.43;;;5.90;;
55647;SDS011;45266;48.756;9.246;2023-05-18T05:09:56;8.10;;;6.27;;
55647;SDS011;45266;48.756;9.246;2023-05-18T05:10:58;10.10;;;5.83;;
55647;SDS011;45266;48.756;9.246;2023-05-18T05:12:00;7.90;;;6.07;;
55647;SDS011;45266;48.756;9.246;2023-05-18T05:13:02;10.53;;;5.77;;
55647;SDS011;45266;48.756;9.246;2023-05-18T05:14:04;10.97;;;6.20;;
55647;SDS011;45266;48.756;9.246;2023-05-18T05:15:06;9.07;;;6.20;;
55647;SDS011;45266;48.756;9.246;2023-05-18T05:16:09;8.90;;;6.23;;
55647;SDS011;45266;48.756;9.246;2023-05-18T05:17:11;7.70;;;5.80;;
55647;SDS011;45266;48.756;9.246;2023-05-18T05:18:13;6.60;;;5.40;;
55647;SDS011;45266;48.756;9.246;2023-05-18T05:19:15;9.33;;;6.10;;
55647;SDS011;45266;48.756;9.246;2023-05-18T05:20:17;12.70;;;5.93;;
55647;SDS011;45266;48.756;9.246;2023-05-18T05:21:19;6.87;;;5.43;;
55647;SDS011;45266;48.756;9.246;2023-05-18T05:22:21;8.53;;;5.77;;
55647;SDS011;45266;48.756;9.246;2023-05-18T05:23:23;7.13;;;5.30;;
55647;SDS011;45266;48.756;9.246;2023-05-18T05:24:25;9.20;;;5.97;;
55647;SDS011;45266;48.756;9.246;2023-05-18T05:25:27;8.17;;;5.63;;
55647;SDS011;45266;48.756;9.246;2023-05-18T05:26:30;8.77;;;5.87;;
55647;SDS011;45266;48.756;9.246;2023-05-18T05:27:32;7.97;;;5.77;;
55647;SDS011;45266;48.756;9.246;2023-05-18T05:28:34;11.73;;;6.10;;
55647;SDS011;45266;48.756;9.246;2023-05-18T05:29:36;10.20;;;5.97;;
55647;SDS011;45266;48.756;9.246;2023-05-18T05:30:38;10.60;;;5.37;;
55647;SDS011;45266;48.756;9.246;2023-05-18T05:31:40;8.77;;;5.43;;
55647;SDS011;45266;48.756;9.246;2023-05-18T05:32:41;8.03;;;6.07;;
55647;SDS011;45266;48.756;9.246;2023-05-18T05:33:44;10.13;;;6.13;;
55647;SDS011;45266;48.756;9.246;2023-05-18T05:34:46;7.97;;;6.10;;
55647;SDS011;45266;48.756;9.246;2023-05-18T05:35:50;12.77;;;6.17;;
55647;SDS011;45266;48.756;9.246;2023-05-18T05:36:52;10.10;;;5.67;;
55647;SDS011;45266;48.756;9.246;2023-05-18T05:37:54;9.77;;;6.50;;
55647;SDS011;45266;48.756;9.246;2023-05-18T05:38:56;10.73;;;6.20;;
55647;SDS011;45266;48.756;9.246;2023-05-18T05:39:57;9.33;;;5.70;;
55647;SDS011;45266;48.756;9.246;2023-05-18T05:41:00;9.57;;;6.00;;
55647;SDS011;45266;48.756;9.246;2023-05-18T05:42:01;11.50;;;6.90;;
55647;SDS011;45266;48.756;9.246;2023-05-18T05:43:04;8.97;;;6.30;;
55647;SDS011;45266;48.756;9.246;2023-05-18T05:44:06;8.73;;;5.93;;
55647;SDS011;45266;48.756;9.246;2023-05-18T05:45:08;8.97;;;6.23;;
55647;SDS011;45266;48.756;9.246;2023-05-18T05:46:10;12.73;;;7.93;;
55647;SDS011;45266;48.756;9.246;2023-05-18T05:47:12;10.50;;;5.07;;
55647;SDS011;45266;48.756;9.246;2023-05-18T05:48:14;8.23;;;5.30;;
55647;SDS011;45266;48.756;9.246;2023-05-18T05:49:16;9.97;;;5.20;;
55647;SDS011;45266;48.756;9.246;2023-05-18T05:50:18;10.60;;;5.60;;
55647;SDS011;45266;48.756;9.246;2023-05-18T05:51:20;12.17;;;5.50;;
55647;SDS011;45266;48.756;9.246;2023-05-18T05:52:22;8.03;;;4.83;;
55647;SDS011;45266;48.756;9.246;2023-05-18T05:53:24;7.80;;;4.63;;
55647;SDS011;45266;48.756;9.246;2023-05-18T05:54:26;10.77;;;4.60;;
55647;SDS011;45266;48.756;9.246;2023-05-18T05:55:28;11.50;;;4.57;;
55647;SDS011;45266;48.756;9.246;2023-05-18T05:56:30;7.70;;;4.27;;
55647;SDS011;45266;48.756;9.246;2023-05-18T05:57:32;11.33;;;4.50;;
55647;SDS011;45266;48.756;9.246;2023-05-18T05:58:34;10.77;;;4.60;;
55647;SDS011;45266;48.756;9.246;2023-05-18T05:59:36;9.80;;;4.40;;
55647;SDS011;45266;48.756;9.246;2023-05-18T06:00:38;10.93;;;4.43;;
55647;SDS011;45266;48.756;9.246;2023-05-18T06:01:39;9.77;;;4.50;;
55647;SDS011;45266;48.756;9.246;2023-05-18T06:02:41;8.63;;;4.10;;
55647;SDS011;45266;48.756;9.246;2023-05-18T06:03:43;8.40;;;4.20;;
55647;SDS011;45266;48.756;9.246;2023-05-18T06:04:45;10.10;;;4.20;;
55647;SDS011;45266;48.756;9.246;2023-05-18T06:05:47;9.67;;;4.70;;
55647;SDS011;45266;48.756;9.246;2023-05-18T06:06:49;8.13;;;3.60;;
55647;SDS011;45266;48.756;9.246;2023-05-18T06:07:51;8.40;;;4.10;;
55647;SDS011;45266;48.756;9.246;2023-05-18T06:08:53;9.47;;;4.20;;
55647;SDS011;45266;48.756;9.246;2023-05-18T06:09:55;8.93;;;3.73;;
55647;SDS011;45266;48.756;9.246;2023-05-18T06:10:57;9.45;;;3.85;;
55647;SDS011;45266;48.756;9.246;2023-05-18T06:11:59;7.27;;;4.10;;
55647;SDS011;45266;48.756;9.246;2023-05-18T06:13:01;9.17;;;4.23;;
55647;SDS011;45266;48.756;9.246;2023-05-18T06:14:03;12.60;;;4.63;;
55647;SDS011;45266;48.756;9.246;2023-05-18T06:15:05;8.23;;;4.37;;
55647;SDS011;45266;48.756;9.246;2023-05-18T06:16:07;9.07;;;4.67;;
55647;SDS011;45266;48.756;9.246;2023-05-18T06:17:09;6.77;;;4.20;;
55647;SDS011;45266;48.756;9.246;2023-05-18T06:18:11;7.30;;;3.80;;
55647;SDS011;45266;48.756;9.246;2023-05-18T06:19:14;7.33;;;4.23;;
55647;SDS011;45266;48.756;9.246;2023-05-18T06:20:16;10.27;;;3.63;;
55647;SDS011;45266;48.756;9.246;2023-05-18T06:21:18;8.67;;;3.67;;
55647;SDS011;45266;48.756;9.246;2023-05-18T06:22:20;8.17;;;3.67;;
55647;SDS011;45266;48.756;9.246;2023-05-18T06:23:22;6.57;;;3.87;;
55647;SDS011;45266;48.756;9.246;2023-05-18T06:24:24;6.20;;;3.53;;
55647;SDS011;45266;48.756;9.246;2023-05-18T06:25:25;8.90;;;3.60;;
55647;SDS011;45266;48.756;9.246;2023-05-18T06:26:28;6.83;;;3.73;;